Time,TemperatureF,DewpointF,PressureIn,WindDirection,WindDirectionDegrees,WindSpeedMPH,WindSpeedGustMPH,Humidity,HourlyPrecipIn,Conditions,Clouds,dailyrainin,SolarRadiationWatts/m^2,SoftwareType,DateUTC
2013-08-29 00:05:00,73.0,63.0,-100.00,ESE,122,1.0,4.0,72,0.00,,,0.00,0.000000,,2013-08-29 05:05:00,
2013-08-29 00:42:00,67.0,63.0,-100.00,ENE,59,2.0,3.0,88,0.00,,,0.00,0.000000,,2013-08-29 05:42:00,
2013-08-29 00:52:00,67.0,63.0,-100.00,ENE,59,2.0,3.0,88,0.00,,,0.00,0.000000,,2013-08-29 05:52:00,
2013-08-29 01:02:00,67.0,63.0,-100.00,ENE,59,2.0,3.0,88,0.00,,,0.00,0.000000,,2013-08-29 06:02:00,
2013-08-29 01:43:00,65.0,63.0,-100.00,NE,56,0.0,2.0,92,0.00,,,0.00,0.000000,,2013-08-29 06:43:00,
2013-08-29 01:52:00,65.0,63.0,-100.00,NE,56,0.0,2.0,92,0.00,,,0.00,0.000000,,2013-08-29 06:52:00,
2013-08-29 02:01:00,65.0,63.0,-100.00,NE,56,0.0,2.0,92,0.00,,,0.00,0.000000,,2013-08-29 07:01:00,
2013-08-29 02:42:00,63.0,62.0,-100.00,East,99,0.0,3.0,95,0.00,,,0.00,0.000000,,2013-08-29 07:42:00,
2013-08-29 02:53:00,63.0,62.0,-100.00,East,99,0.0,3.0,95,0.00,,,0.00,0.000000,,2013-08-29 07:53:00,
2013-08-29 03:02:00,63.0,62.0,-100.00,East,99,0.0,3.0,95,0.00,,,0.00,0.000000,,2013-08-29 08:02:00,
2013-08-29 03:42:00,63.0,62.0,-100.00,South,183,0.0,1.0,95,0.00,,,0.00,0.000000,,2013-08-29 08:42:00,
2013-08-29 03:52:00,63.0,62.0,-100.00,South,183,0.0,1.0,95,0.00,,,0.00,0.000000,,2013-08-29 08:52:00,
2013-08-29 04:01:00,63.0,62.0,-100.00,South,183,0.0,1.0,95,0.00,,,0.00,0.000000,,2013-08-29 09:01:00,
2013-08-29 04:06:00,63.0,62.0,-100.00,ESE,111,0.0,3.0,97,0.00,,,0.00,0.000000,,2013-08-29 09:06:00,
2013-08-29 04:43:00,63.0,62.0,-100.00,ESE,111,0.0,3.0,97,0.00,,,0.00,0.000000,,2013-08-29 09:43:00,
2013-08-29 04:55:00,63.0,62.0,-100.00,ESE,111,0.0,3.0,97,0.00,,,0.00,0.000000,,2013-08-29 09:55:00,
2013-08-29 05:43:00,63.0,62.0,-100.00,East,98,0.0,4.0,97,0.00,,,0.00,0.000000,,2013-08-29 10:43:00,
2013-08-29 05:53:00,63.0,62.0,-100.00,East,98,0.0,4.0,97,0.00,,,0.00,0.000000,,2013-08-29 10:53:00,
2013-08-29 06:03:00,63.0,62.0,-100.00,East,98,0.0,4.0,97,0.00,,,0.00,0.000000,,2013-08-29 11:03:00,
2013-08-29 06:42:00,67.0,66.0,-100.00,SE,136,2.0,4.0,98,0.00,,,0.00,0.000000,,2013-08-29 11:42:00,
2013-08-29 06:52:00,67.0,66.0,-100.00,SE,136,2.0,4.0,98,0.00,,,0.00,0.000000,,2013-08-29 11:52:00,
2013-08-29 07:02:00,67.0,66.0,-100.00,SE,136,2.0,4.0,98,0.00,,,0.00,0.000000,,2013-08-29 12:02:00,
2013-08-29 07:42:00,69.0,68.0,-100.00,ESE,107,1.0,5.0,96,0.00,,,0.00,16.000000,,2013-08-29 12:42:00,
2013-08-29 07:52:00,69.0,68.0,-100.00,ESE,107,1.0,5.0,96,0.00,,,0.00,16.000000,,2013-08-29 12:52:00,
2013-08-29 08:02:00,69.0,68.0,-100.00,ESE,107,1.0,5.0,96,0.00,,,0.00,16.000000,,2013-08-29 13:02:00,
2013-08-29 08:42:00,72.0,70.0,-100.00,SE,127,0.0,4.0,94,0.00,,,0.00,44.000000,,2013-08-29 13:42:00,
2013-08-29 08:52:00,72.0,70.0,-100.00,SE,127,0.0,4.0,94,0.00,,,0.00,44.000000,,2013-08-29 13:52:00,
2013-08-29 09:02:00,72.0,70.0,-100.00,SE,127,0.0,4.0,94,0.00,,,0.00,44.000000,,2013-08-29 14:02:00,
2013-08-29 09:42:00,78.0,71.0,-100.00,SSE,159,2.0,8.0,80,0.00,,,0.00,177.000000,,2013-08-29 14:42:00,
2013-08-29 09:52:00,78.0,71.0,-100.00,SSE,159,2.0,8.0,80,0.00,,,0.00,177.000000,,2013-08-29 14:52:00,
2013-08-29 10:02:00,78.0,71.0,-100.00,SSE,159,2.0,8.0,80,0.00,,,0.00,177.000000,,2013-08-29 15:02:00,
2013-08-29 10:43:00,81.0,73.0,-100.00,SE,144,4.0,9.0,76,0.00,,,0.00,232.000000,,2013-08-29 15:43:00,
2013-08-29 10:53:00,81.0,73.0,-100.00,SE,144,4.0,9.0,76,0.00,,,0.00,232.000000,,2013-08-29 15:53:00,
2013-08-29 11:05:00,81.0,73.0,-100.00,SE,144,4.0,9.0,76,0.00,,,0.00,232.000000,,2013-08-29 16:05:00,
2013-08-29 11:43:00,85.0,72.0,-100.00,SE,135,5.0,10.0,66,0.00,,,0.00,534.000000,,2013-08-29 16:43:00,
2013-08-29 11:54:00,85.0,72.0,-100.00,SE,135,5.0,10.0,66,0.00,,,0.00,534.000000,,2013-08-29 16:54:00,
2013-08-29 12:03:00,85.0,72.0,-100.00,SE,135,5.0,10.0,66,0.00,,,0.00,534.000000,,2013-08-29 17:03:00,
2013-08-29 12:44:00,87.0,73.0,-100.00,SSE,154,5.0,12.0,63,0.00,,,0.00,521.000000,,2013-08-29 17:44:00,
2013-08-29 12:53:00,87.0,73.0,-100.00,SSE,154,5.0,12.0,63,0.00,,,0.00,521.000000,,2013-08-29 17:53:00,
2013-08-29 13:02:00,87.0,73.0,-100.00,SSE,154,5.0,12.0,63,0.00,,,0.00,521.000000,,2013-08-29 18:02:00,
2013-08-29 13:42:00,91.0,71.0,-100.00,South,191,5.0,12.0,53,0.00,,,0.00,512.000000,,2013-08-29 18:42:00,
2013-08-29 13:52:00,91.0,71.0,-100.00,South,191,5.0,12.0,53,0.00,,,0.00,512.000000,,2013-08-29 18:52:00,
2013-08-29 14:01:00,91.0,71.0,-100.00,South,191,5.0,12.0,53,0.00,,,0.00,512.000000,,2013-08-29 19:01:00,
2013-08-29 14:42:00,96.0,68.0,-100.00,SSW,194,6.0,15.0,41,0.00,,,0.00,752.000000,,2013-08-29 19:42:00,
2013-08-29 14:53:00,96.0,68.0,-100.00,SSW,194,6.0,15.0,41,0.00,,,0.00,752.000000,,2013-08-29 19:53:00,
2013-08-29 15:02:00,96.0,68.0,-100.00,SSW,194,6.0,15.0,41,0.00,,,0.00,752.000000,,2013-08-29 20:02:00,
2013-08-29 15:42:00,93.0,68.0,-100.00,South,188,7.0,17.0,45,0.00,,,0.00,418.000000,,2013-08-29 20:42:00,
2013-08-29 15:52:00,93.0,68.0,-100.00,South,188,7.0,17.0,45,0.00,,,0.00,418.000000,,2013-08-29 20:52:00,
2013-08-29 16:01:00,93.0,68.0,-100.00,South,188,7.0,17.0,45,0.00,,,0.00,418.000000,,2013-08-29 21:01:00,
2013-08-29 16:44:00,91.0,70.0,-100.00,South,185,6.0,18.0,50,0.00,,,0.00,454.000000,,2013-08-29 21:44:00,
2013-08-29 16:54:00,91.0,70.0,-100.00,South,185,6.0,18.0,50,0.00,,,0.00,454.000000,,2013-08-29 21:54:00,
2013-08-29 17:04:00,91.0,70.0,-100.00,South,185,6.0,18.0,50,0.00,,,0.00,454.000000,,2013-08-29 22:04:00,
2013-08-29 17:43:00,90.0,71.0,-100.00,SSW,193,4.0,14.0,53,0.00,,,0.00,220.000000,,2013-08-29 22:43:00,
2013-08-29 17:53:00,90.0,71.0,-100.00,SSW,193,4.0,14.0,53,0.00,,,0.00,220.000000,,2013-08-29 22:53:00,
2013-08-29 18:03:00,90.0,71.0,-100.00,SSW,193,4.0,14.0,53,0.00,,,0.00,220.000000,,2013-08-29 23:03:00,
2013-08-29 18:43:00,92.0,66.0,-100.00,SSW,194,6.0,15.0,43,0.00,,,0.00,194.000000,,2013-08-29 23:43:00,
2013-08-29 18:53:00,92.0,66.0,-100.00,SSW,194,6.0,15.0,43,0.00,,,0.00,194.000000,,2013-08-29 23:53:00,
2013-08-29 19:02:00,92.0,66.0,-100.00,SSW,194,6.0,15.0,43,0.00,,,0.00,194.000000,,2013-08-30 00:02:00,
2013-08-29 19:42:00,89.0,65.0,-100.00,SW,217,4.0,13.0,45,0.00,,,0.00,127.000000,,2013-08-30 00:42:00,
2013-08-29 19:52:00,89.0,65.0,-100.00,SW,217,4.0,13.0,45,0.00,,,0.00,127.000000,,2013-08-30 00:52:00,
2013-08-29 20:01:00,89.0,65.0,-100.00,SW,217,4.0,13.0,45,0.00,,,0.00,127.000000,,2013-08-30 01:01:00,
2013-08-29 20:42:00,86.0,67.0,-100.00,SSW,192,3.0,11.0,53,0.00,,,0.00,13.000000,,2013-08-30 01:42:00,
2013-08-29 20:52:00,86.0,67.0,-100.00,SSW,192,3.0,11.0,53,0.00,,,0.00,13.000000,,2013-08-30 01:52:00,
2013-08-29 21:02:00,86.0,67.0,-100.00,SSW,192,3.0,11.0,53,0.00,,,0.00,13.000000,,2013-08-30 02:02:00,
2013-08-29 21:42:00,82.0,67.0,-100.00,South,187,2.0,8.0,60,0.00,,,0.00,0.000000,,2013-08-30 02:42:00,
2013-08-29 21:52:00,82.0,67.0,-100.00,South,187,2.0,8.0,60,0.00,,,0.00,0.000000,,2013-08-30 02:52:00,
2013-08-29 22:02:00,82.0,67.0,-100.00,South,187,2.0,8.0,60,0.00,,,0.00,0.000000,,2013-08-30 03:02:00,
2013-08-29 22:43:00,81.0,68.0,-100.00,SSE,159,2.0,7.0,65,0.00,,,0.00,0.000000,,2013-08-30 03:43:00,
2013-08-29 22:55:00,81.0,68.0,-100.00,SSE,159,2.0,7.0,65,0.00,,,0.00,0.000000,,2013-08-30 03:55:00,
2013-08-29 23:04:00,81.0,68.0,-100.00,SSE,159,2.0,7.0,65,0.00,,,0.00,0.000000,,2013-08-30 04:04:00,
2013-08-29 23:44:00,78.0,68.0,-100.00,East,89,1.0,5.0,72,0.00,,,0.00,0.000000,,2013-08-30 04:44:00,
2013-08-29 23:54:00,78.0,68.0,-100.00,East,89,1.0,5.0,72,0.00,,,0.00,0.000000,,2013-08-30 04:54:00,